This is the latest recevied weather packets stored in our database for station/object IA5ITY-13. If no packets are shown the sender has not sent any weather packets the latest 10 day(s).
| Time | Temp. | Humidity | Pressure | Rain* | Wind** | Luminosity | Snow |
|---|---|---|---|---|---|---|---|
| 1777774212 | 12.78° C | 43% | 1019.2 hPa | 0 mm | - | - | - |
| 1777773631 | 13.89° C | 40% | 1019.2 hPa | 0 mm | - | - | - |
| 1777773308 | 12.78° C | 42% | 1019.2 hPa | 0 mm | - | - | - |
| 1777772412 | 12.78° C | 41% | 1019.2 hPa | 0 mm | - | - | - |
| 1777767612 | 12.78° C | 45% | 1019.8 hPa | 0 mm | - | - | - |
| 1777764621 | 12.78° C | 46% | 1020.2 hPa | 0 mm | - | - | - |
| 1777761613 | 12.78° C | 53% | 1020.4 hPa | 0 mm | - | - | - |
| 1777761309 | 12.78° C | 52% | 1020.4 hPa | 0 mm | - | - | - |
| 1777761021 | 12.78° C | 52% | 1020.5 hPa | 0 mm | - | - | - |
| 1777760708 | 12.78° C | 54% | 1020.6 hPa | 0 mm | - | - | - |
| 1777760412 | 12.78° C | 55% | 1020.6 hPa | 0 mm | - | - | - |
| 1777760112 | 12.78° C | 54% | 1020.6 hPa | 0 mm | - | - | - |
| 1777759509 | 12.78° C | 55% | 1020.7 hPa | 0 mm | - | - | - |
| 1777758909 | 12.78° C | 54% | 1020.7 hPa | 0 mm | - | - | - |
| 1777757709 | 13.89° C | 52% | 1020.7 hPa | 0 mm | - | - | - |
| 1777757421 | 13.89° C | 53% | 1020.7 hPa | 0 mm | - | - | - |
| 1777757108 | 13.89° C | 52% | 1020.7 hPa | 0 mm | - | - | - |
| 1777756812 | 13.89° C | 52% | 1020.7 hPa | 0 mm | - | - | - |
| 1777756512 | 13.89° C | 53% | 1020.6 hPa | 0 mm | - | - | - |
| 1777756212 | 13.89° C | 52% | 1020.6 hPa | 0 mm | - | - | - |
| 1777755909 | 13.89° C | 51% | 1020.5 hPa | 0 mm | - | - | - |
| 1777755631 | 13.89° C | 51% | 1020.5 hPa | 0 mm | - | - | - |
| 1777754108 | 13.89° C | 50% | 1020.5 hPa | 0 mm | - | - | - |
| 1777753821 | 13.89° C | 51% | 1020.5 hPa | 0 mm | - | - | - |
| 1777753509 | 13.89° C | 51% | 1020.4 hPa | 0 mm | - | - | - |
* Rain latest hour (hover to see other rain measurements)
** Current wind speed in m/s (hover to see current wind gust speed)